createdAt,value
2022-12-31T00:00:15.124Z,1.95
2022-12-31T00:02:42.282Z,2.58
2022-12-31T00:05:09.863Z,2.08
2022-12-31T00:10:04.380Z,1.30
2022-12-31T00:12:31.318Z,1.42
2022-12-31T00:14:58.225Z,1.08
2022-12-31T00:17:25.162Z,1.38
2022-12-31T00:19:52.155Z,1.52
2022-12-31T00:22:19.082Z,2.67
2022-12-31T00:24:45.974Z,2.40
2022-12-31T00:27:12.840Z,3.13
2022-12-31T00:29:39.911Z,4.93
2022-12-31T00:32:06.742Z,2.28
2022-12-31T00:34:34.277Z,1.88
2022-12-31T00:37:01.185Z,2.65
2022-12-31T00:39:28.125Z,1.55
2022-12-31T00:41:55.073Z,1.10
2022-12-31T00:44:21.965Z,1.70
2022-12-31T00:46:49.015Z,1.33
2022-12-31T00:49:16.055Z,1.42
2022-12-31T00:51:42.901Z,0.90
2022-12-31T00:54:10.164Z,1.42
2022-12-31T00:56:37.032Z,2.47
2022-12-31T00:59:04.084Z,5.32
2022-12-31T01:01:35.149Z,1.75
2022-12-31T01:04:10.390Z,1.52
2022-12-31T01:06:38.441Z,1.20
2022-12-31T01:09:07.635Z,1.17
2022-12-31T01:11:34.614Z,1.23
2022-12-31T01:14:12.018Z,2.28
2022-12-31T01:16:47.027Z,2.40
2022-12-31T01:19:25.120Z,2.10
2022-12-31T01:21:52.742Z,2.95
2022-12-31T01:24:20.755Z,2.38
2022-12-31T01:26:50.798Z,3.15
2022-12-31T01:29:17.824Z,1.60
2022-12-31T01:31:44.993Z,1.48
2022-12-31T01:34:12.112Z,1.73
2022-12-31T01:36:39.758Z,3.25
2022-12-31T01:39:08.861Z,2.25
2022-12-31T01:41:43.227Z,2.28
2022-12-31T01:44:12.965Z,2.47
2022-12-31T01:47:00.054Z,3.08
2022-12-31T01:49:56.660Z,2.90
2022-12-31T01:52:44.704Z,2.38
2022-12-31T01:55:31.281Z,3.33
2022-12-31T01:58:17.773Z,3.10
2022-12-31T02:00:45.502Z,3.70
2022-12-31T02:03:14.276Z,2.00
2022-12-31T02:06:07.760Z,2.60
2022-12-31T02:08:41.817Z,2.72
2022-12-31T02:11:30.140Z,4.07
2022-12-31T02:14:06.419Z,3.13
2022-12-31T02:16:48.934Z,2.55
2022-12-31T02:19:37.229Z,3.45
2022-12-31T02:22:16.142Z,1.92
2022-12-31T02:25:38.341Z,1.98
2022-12-31T02:28:38.778Z,3.22
2022-12-31T02:31:21.938Z,3.53
2022-12-31T02:34:07.627Z,2.85
2022-12-31T02:39:09.212Z,2.58
2022-12-31T02:41:51.507Z,2.22
2022-12-31T02:44:35.495Z,3.65
2022-12-31T02:47:05.110Z,2.45
2022-12-31T02:49:55.678Z,3.60
2022-12-31T02:53:09.411Z,2.38
2022-12-31T02:55:59.944Z,2.35
2022-12-31T02:59:09.770Z,2.33
2022-12-31T03:02:02.130Z,2.70
2022-12-31T03:04:32.868Z,3.70
2022-12-31T03:07:14.097Z,2.53
2022-12-31T03:09:41.219Z,1.75
2022-12-31T03:12:30.583Z,3.47
2022-12-31T03:14:58.269Z,2.63
2022-12-31T03:17:25.839Z,1.80
2022-12-31T03:20:11.439Z,2.90
2022-12-31T03:25:35.932Z,1.73
2022-12-31T03:28:15.444Z,2.13
2022-12-31T03:30:47.066Z,2.78
2022-12-31T03:33:14.532Z,2.13
2022-12-31T03:35:46.527Z,2.10
2022-12-31T03:38:13.968Z,2.10
2022-12-31T03:40:45.300Z,2.28
2022-12-31T03:43:12.567Z,3.13
2022-12-31T03:45:40.035Z,2.47
2022-12-31T03:48:09.620Z,2.90
2022-12-31T03:50:37.209Z,3.50
2022-12-31T03:53:04.492Z,4.03
2022-12-31T03:55:31.715Z,2.92
2022-12-31T03:57:59.653Z,2.30
2022-12-31T04:00:27.983Z,1.73
2022-12-31T04:02:55.367Z,2.38
2022-12-31T04:05:22.984Z,2.78
2022-12-31T04:07:52.012Z,2.63
2022-12-31T04:10:20.445Z,2.70
2022-12-31T04:12:47.597Z,1.60
2022-12-31T04:15:20.903Z,3.13
2022-12-31T04:17:48.601Z,1.85
2022-12-31T04:20:16.807Z,1.65
2022-12-31T04:22:44.190Z,1.40
2022-12-31T04:25:12.860Z,1.30
2022-12-31T04:27:41.445Z,1.23
2022-12-31T04:30:12.007Z,1.90
2022-12-31T04:32:39.286Z,2.78
2022-12-31T04:35:07.531Z,1.83
2022-12-31T04:37:34.674Z,1.00
2022-12-31T04:40:05.786Z,1.00
2022-12-31T04:42:33.484Z,2.15
2022-12-31T04:45:04.531Z,2.20
2022-12-31T04:47:32.617Z,1.48
2022-12-31T04:49:59.635Z,0.98
2022-12-31T04:52:26.707Z,0.90
2022-12-31T04:54:55.982Z,1.40
2022-12-31T04:57:23.026Z,1.15
2022-12-31T04:59:50.809Z,1.20
2022-12-31T05:02:17.775Z,1.42
2022-12-31T05:04:44.751Z,1.88
2022-12-31T05:07:11.629Z,1.67
2022-12-31T05:09:38.684Z,1.25
2022-12-31T05:12:06.086Z,1.67
2022-12-31T05:14:32.998Z,1.25
2022-12-31T05:17:01.004Z,3.38
2022-12-31T05:19:27.990Z,0.90
2022-12-31T05:22:13.224Z,1.20
2022-12-31T05:24:41.272Z,1.15
2022-12-31T05:27:08.207Z,1.08
2022-12-31T05:29:35.084Z,1.60
2022-12-31T05:32:01.938Z,1.02
2022-12-31T05:34:28.789Z,0.75
2022-12-31T05:36:55.689Z,0.52
2022-12-31T05:39:22.579Z,0.98
2022-12-31T05:41:49.456Z,0.85
2022-12-31T05:44:16.311Z,0.70
2022-12-31T05:46:43.870Z,1.45
2022-12-31T05:49:10.809Z,1.90
2022-12-31T05:51:38.010Z,0.47
2022-12-31T05:54:04.922Z,0.95
2022-12-31T05:56:31.885Z,0.35
2022-12-31T05:58:58.765Z,0.30
2022-12-31T06:01:25.737Z,0.65
2022-12-31T06:03:52.729Z,0.30
2022-12-31T06:06:19.664Z,1.73
2022-12-31T06:08:51.297Z,1.05
2022-12-31T06:11:18.498Z,0.85
2022-12-31T06:13:45.418Z,0.60
2022-12-31T06:16:13.438Z,0.77
2022-12-31T06:18:40.447Z,0.88
2022-12-31T06:21:07.507Z,0.30
2022-12-31T06:23:34.367Z,0.90
2022-12-31T06:26:05.608Z,0.60
2022-12-31T06:28:33.128Z,0.13
2022-12-31T06:31:08.644Z,0.77
2022-12-31T06:33:35.674Z,0.60
2022-12-31T06:36:07.255Z,0.30
2022-12-31T06:38:38.763Z,0.57
2022-12-31T06:41:07.865Z,0.45
2022-12-31T06:43:35.936Z,0.40
2022-12-31T06:46:05.879Z,0.43
2022-12-31T06:48:33.118Z,0.60
2022-12-31T06:51:16.558Z,0.57
2022-12-31T06:53:46.338Z,0.60
2022-12-31T06:56:31.290Z,1.17
2022-12-31T06:59:01.230Z,0.70
2022-12-31T07:01:37.543Z,0.73
2022-12-31T07:04:47.336Z,2.20
2022-12-31T07:07:23.124Z,0.90
2022-12-31T07:10:16.523Z,2.53
2022-12-31T07:13:32.429Z,0.75
2022-12-31T07:16:39.949Z,0.30
2022-12-31T07:19:34.073Z,2.05
2022-12-31T07:22:02.642Z,1.00
2022-12-31T07:24:30.060Z,0.35
2022-12-31T07:27:27.774Z,0.88
2022-12-31T07:30:13.467Z,1.02
2022-12-31T07:33:01.418Z,0.40
2022-12-31T07:36:09.273Z,0.88
2022-12-31T07:38:58.779Z,0.82
2022-12-31T07:42:15.824Z,0.75
2022-12-31T07:44:56.290Z,0.98
2022-12-31T07:47:27.591Z,0.75
2022-12-31T07:49:56.375Z,0.82
2022-12-31T07:52:24.601Z,0.40
2022-12-31T07:54:51.505Z,0.70
2022-12-31T07:57:21.311Z,0.55
2022-12-31T08:00:08.477Z,0.95
2022-12-31T08:03:17.787Z,2.63
2022-12-31T08:06:02.983Z,1.30
2022-12-31T08:09:03.835Z,1.75
2022-12-31T08:12:00.468Z,1.98
2022-12-31T08:14:29.049Z,3.30
2022-12-31T08:16:57.570Z,1.20
2022-12-31T08:19:32.538Z,2.95
2022-12-31T08:25:27.542Z,1.75
2022-12-31T08:28:28.359Z,1.70
2022-12-31T08:31:05.482Z,1.17
2022-12-31T08:34:02.037Z,1.85
2022-12-31T08:37:05.377Z,0.80
2022-12-31T08:40:09.798Z,0.80
2022-12-31T08:43:07.216Z,0.93
2022-12-31T08:45:49.827Z,1.08
2022-12-31T08:48:42.402Z,1.33
2022-12-31T08:51:19.526Z,0.88
2022-12-31T08:53:48.312Z,0.63
2022-12-31T08:57:00.335Z,0.80
2022-12-31T08:59:44.721Z,1.10
2022-12-31T09:02:22.766Z,2.77
2022-12-31T09:05:02.007Z,1.13
2022-12-31T09:08:16.620Z,1.35
2022-12-31T09:11:10.797Z,0.95
2022-12-31T09:14:17.520Z,1.02
2022-12-31T09:17:17.646Z,1.13
2022-12-31T09:19:45.303Z,1.35
2022-12-31T09:22:12.595Z,1.85
2022-12-31T09:24:39.803Z,0.45
2022-12-31T09:27:16.339Z,0.90
2022-12-31T09:30:03.855Z,1.65
2022-12-31T09:32:58.591Z,3.33
2022-12-31T09:36:01.722Z,1.17
2022-12-31T09:38:54.407Z,1.58
2022-12-31T09:42:10.763Z,1.23
2022-12-31T09:47:51.926Z,1.00
2022-12-31T09:50:41.803Z,1.63
2022-12-31T09:53:39.066Z,2.05
2022-12-31T09:56:31.223Z,1.40
2022-12-31T09:59:27.930Z,0.90
2022-12-31T10:02:12.975Z,2.22
2022-12-31T10:05:08.830Z,1.35
2022-12-31T10:10:46.931Z,0.68
2022-12-31T10:14:06.829Z,2.30
2022-12-31T10:17:01.745Z,1.15
2022-12-31T10:20:27.726Z,0.43
2022-12-31T10:23:40.014Z,2.43
2022-12-31T10:26:21.914Z,2.45
2022-12-31T10:29:23.907Z,1.45
2022-12-31T10:31:53.769Z,1.92
2022-12-31T10:34:53.591Z,2.28
2022-12-31T10:37:26.371Z,1.00
2022-12-31T10:40:11.491Z,2.63
2022-12-31T10:43:22.879Z,1.65
2022-12-31T10:46:01.659Z,1.98
2022-12-31T10:49:00.406Z,1.58
2022-12-31T10:51:54.439Z,1.05
2022-12-31T10:54:39.609Z,1.35
2022-12-31T10:57:29.851Z,2.05
2022-12-31T11:00:13.804Z,1.10
2022-12-31T11:02:40.789Z,2.90
2022-12-31T11:05:38.472Z,1.05
2022-12-31T11:08:46.325Z,2.92
2022-12-31T11:11:51.392Z,1.35
2022-12-31T11:14:48.237Z,1.20
2022-12-31T11:17:39.808Z,2.00
2022-12-31T11:20:51.943Z,0.68
2022-12-31T11:23:59.280Z,1.70
2022-12-31T11:27:14.470Z,1.00
2022-12-31T11:29:56.537Z,2.03
2022-12-31T11:32:41.962Z,1.48
2022-12-31T11:35:49.633Z,2.00
2022-12-31T11:38:30.367Z,2.15
2022-12-31T11:41:49.179Z,1.52
2022-12-31T11:44:21.023Z,1.30
2022-12-31T11:47:04.462Z,3.35
2022-12-31T11:49:57.376Z,3.55
2022-12-31T11:52:39.340Z,3.38
2022-12-31T11:55:14.938Z,2.85
2022-12-31T11:57:52.286Z,3.08
2022-12-31T12:00:24.346Z,1.10
2022-12-31T12:02:59.355Z,4.45
2022-12-31T12:05:26.996Z,0.98
2022-12-31T12:07:54.669Z,2.30
2022-12-31T12:10:29.114Z,0.77
2022-12-31T12:13:00.720Z,2.67
2022-12-31T12:15:35.414Z,1.13
2022-12-31T12:21:21.678Z,1.48
2022-12-31T12:24:22.198Z,4.20
2022-12-31T12:26:49.630Z,4.18
2022-12-31T12:29:29.099Z,1.60
2022-12-31T12:32:17.551Z,1.90
2022-12-31T12:34:49.555Z,1.77
2022-12-31T12:37:35.393Z,2.83
2022-12-31T12:40:33.312Z,1.48
2022-12-31T12:43:03.587Z,1.42
2022-12-31T12:46:21.804Z,1.10
2022-12-31T12:48:55.681Z,2.03
2022-12-31T12:51:54.598Z,2.10
2022-12-31T12:55:03.249Z,1.10
2022-12-31T12:57:41.097Z,1.65
2022-12-31T13:00:29.971Z,2.22
2022-12-31T13:03:18.489Z,0.82
2022-12-31T13:06:33.619Z,2.60
2022-12-31T13:09:25.581Z,1.50
2022-12-31T13:12:19.745Z,2.13
2022-12-31T13:15:24.258Z,2.70
2022-12-31T13:17:56.112Z,3.10
2022-12-31T13:20:49.855Z,0.47
2022-12-31T13:23:41.831Z,1.80
2022-12-31T13:26:24.336Z,3.15
2022-12-31T13:28:53.732Z,2.95
2022-12-31T13:31:30.393Z,1.55
2022-12-31T13:34:14.379Z,1.48
2022-12-31T13:36:45.988Z,1.40
2022-12-31T13:39:20.614Z,2.10
2022-12-31T13:41:59.356Z,2.55
2022-12-31T13:44:59.685Z,2.95
2022-12-31T13:47:34.050Z,2.00
2022-12-31T13:50:17.397Z,2.90
2022-12-31T13:53:20.180Z,4.15
2022-12-31T13:55:57.971Z,3.17
2022-12-31T13:58:45.866Z,2.78
2022-12-31T14:01:38.616Z,3.65
2022-12-31T14:04:30.740Z,2.78
2022-12-31T14:07:04.542Z,1.95
2022-12-31T14:09:36.467Z,2.50
2022-12-31T14:13:03.903Z,2.08
2022-12-31T14:15:43.135Z,4.50
2022-12-31T14:18:58.129Z,2.42
2022-12-31T14:22:00.647Z,3.38
2022-12-31T14:24:51.619Z,2.45
2022-12-31T14:27:39.584Z,2.38
2022-12-31T14:30:23.295Z,3.90
2022-12-31T14:33:50.254Z,1.70
2022-12-31T14:36:22.421Z,3.47
2022-12-31T14:39:07.297Z,3.30
2022-12-31T14:41:58.880Z,2.00
2022-12-31T14:44:49.015Z,3.70
2022-12-31T14:47:41.996Z,1.30
2022-12-31T14:50:15.937Z,1.70
2022-12-31T14:53:07.584Z,3.63
2022-12-31T14:55:38.778Z,2.08
2022-12-31T14:58:30.195Z,1.02
2022-12-31T15:00:59.787Z,1.85
2022-12-31T15:03:45.368Z,1.45
2022-12-31T15:06:35.201Z,2.63
2022-12-31T15:09:28.330Z,3.03
2022-12-31T15:12:40.505Z,2.63
2022-12-31T15:15:48.743Z,2.58
2022-12-31T15:18:55.261Z,2.67
2022-12-31T15:21:52.491Z,3.13
2022-12-31T15:24:24.101Z,3.65
2022-12-31T15:26:59.197Z,3.75
2022-12-31T15:29:34.955Z,4.15
2022-12-31T15:32:07.215Z,3.03
2022-12-31T15:34:36.805Z,4.22
2022-12-31T15:37:27.600Z,3.35
2022-12-31T15:40:21.118Z,2.75
2022-12-31T15:43:18.277Z,2.75
2022-12-31T15:45:48.281Z,3.80
2022-12-31T15:48:22.644Z,2.88
2022-12-31T15:50:56.993Z,6.35
2022-12-31T15:53:29.421Z,5.35
2022-12-31T15:55:59.412Z,3.63
2022-12-31T15:58:32.755Z,4.90
2022-12-31T16:01:28.665Z,4.35
2022-12-31T16:04:13.890Z,3.35
2022-12-31T16:06:43.725Z,4.95
2022-12-31T16:09:35.929Z,3.42
2022-12-31T16:12:11.958Z,5.32
2022-12-31T16:14:44.813Z,6.00
2022-12-31T16:17:34.617Z,5.95
2022-12-31T16:20:25.763Z,3.95
2022-12-31T16:22:57.444Z,6.85
2022-12-31T16:25:31.503Z,4.88
2022-12-31T16:28:02.006Z,4.90
2022-12-31T16:30:33.146Z,8.13
2022-12-31T16:33:11.003Z,10.60
2022-12-31T16:35:38.046Z,9.77
2022-12-31T16:38:14.195Z,10.93
2022-12-31T16:41:18.217Z,11.02
2022-12-31T16:43:52.772Z,9.00
2022-12-31T16:46:28.923Z,11.45
2022-12-31T16:49:20.978Z,22.35
2022-12-31T16:51:49.632Z,28.80
2022-12-31T16:54:40.373Z,27.50
2022-12-31T16:57:13.326Z,29.20
2022-12-31T16:59:48.709Z,22.27
2022-12-31T17:02:26.851Z,19.30
2022-12-31T17:04:56.642Z,16.08
2022-12-31T17:07:30.989Z,14.48
2022-12-31T17:10:42.091Z,15.00
2022-12-31T17:13:30.227Z,13.93
2022-12-31T17:15:58.956Z,9.40
2022-12-31T17:18:32.987Z,8.07
2022-12-31T17:21:10.830Z,12.15
2022-12-31T17:23:42.174Z,10.25
2022-12-31T17:26:25.644Z,12.32
2022-12-31T17:28:55.324Z,11.90
2022-12-31T17:31:40.405Z,12.43
2022-12-31T17:34:13.108Z,13.40
2022-12-31T17:36:52.559Z,6.22
2022-12-31T17:39:22.806Z,7.35
2022-12-31T17:41:57.546Z,7.43
2022-12-31T17:44:28.948Z,5.80
2022-12-31T17:46:56.193Z,5.90
2022-12-31T17:49:30.755Z,6.00
2022-12-31T17:51:57.842Z,7.78
2022-12-31T17:54:24.733Z,3.63
2022-12-31T17:56:53.218Z,3.55
2022-12-31T17:59:29.834Z,7.70
2022-12-31T18:02:03.408Z,7.03
2022-12-31T18:04:30.391Z,5.15
2022-12-31T18:06:57.389Z,6.55
2022-12-31T18:09:24.329Z,7.28
2022-12-31T18:11:54.301Z,4.93
2022-12-31T18:14:22.535Z,4.63
2022-12-31T18:16:49.509Z,6.40
2022-12-31T18:19:45.764Z,6.38
2022-12-31T18:22:03.962Z,8.43
2022-12-31T18:24:30.919Z,6.57
2022-12-31T18:27:25.043Z,6.93
2022-12-31T18:29:51.950Z,4.70
2022-12-31T18:32:29.731Z,5.50
2022-12-31T18:34:56.803Z,4.35
2022-12-31T18:37:24.328Z,5.75
2022-12-31T18:39:51.342Z,5.30
2022-12-31T18:42:20.280Z,6.18
2022-12-31T18:44:47.421Z,7.47
2022-12-31T18:47:17.804Z,7.85
2022-12-31T18:49:47.206Z,7.80
2022-12-31T18:52:20.369Z,7.07
2022-12-31T18:54:48.714Z,7.63
2022-12-31T18:57:16.601Z,6.07
2022-12-31T18:59:43.671Z,5.78
2022-12-31T19:02:21.035Z,6.25
2022-12-31T19:04:48.590Z,7.80
2022-12-31T19:07:15.487Z,8.27
2022-12-31T19:09:46.782Z,7.60
2022-12-31T19:12:15.457Z,7.03
2022-12-31T19:14:42.861Z,7.70
2022-12-31T19:19:35.952Z,9.45
2022-12-31T19:22:03.057Z,9.02
2022-12-31T19:24:30.360Z,10.25
2022-12-31T19:26:57.386Z,9.63
2022-12-31T19:29:27.462Z,11.00
2022-12-31T19:31:55.003Z,9.85
2022-12-31T19:34:29.468Z,12.15
2022-12-31T19:36:56.361Z,9.23
2022-12-31T19:39:23.232Z,11.05
2022-12-31T19:41:56.405Z,14.07
2022-12-31T19:44:26.160Z,17.10
2022-12-31T19:46:53.110Z,21.85
2022-12-31T19:49:26.229Z,27.73
2022-12-31T19:51:53.202Z,22.42
2022-12-31T19:54:20.107Z,25.00
2022-12-31T19:56:47.100Z,19.20
2022-12-31T19:59:13.952Z,27.25
2022-12-31T20:01:40.958Z,24.60
2022-12-31T20:04:07.870Z,22.42
2022-12-31T20:06:34.737Z,25.98
2022-12-31T20:09:03.478Z,22.48
2022-12-31T20:11:30.535Z,27.30
2022-12-31T20:13:57.763Z,28.20
2022-12-31T20:16:29.677Z,37.22
2022-12-31T20:18:56.715Z,26.85
2022-12-31T20:21:28.653Z,26.23
2022-12-31T20:23:56.284Z,19.55
2022-12-31T20:26:24.711Z,20.50
2022-12-31T20:28:53.012Z,19.23
2022-12-31T20:31:24.491Z,10.45
2022-12-31T20:33:54.044Z,9.85
2022-12-31T20:36:21.556Z,9.88
2022-12-31T20:38:48.931Z,7.35
2022-12-31T20:41:20.398Z,6.82
2022-12-31T20:43:47.947Z,6.80
2022-12-31T20:46:22.395Z,5.20
2022-12-31T20:48:52.030Z,6.05
2022-12-31T20:51:21.104Z,8.60
2022-12-31T20:54:02.970Z,6.15
2022-12-31T20:56:33.091Z,6.68
2022-12-31T20:59:00.195Z,8.82
2022-12-31T21:01:47.847Z,6.57
2022-12-31T21:04:15.373Z,5.30
2022-12-31T21:06:42.555Z,6.13
2022-12-31T21:09:10.064Z,6.57
2022-12-31T21:11:55.451Z,17.15
2022-12-31T21:16:49.721Z,6.78
2022-12-31T21:19:16.590Z,8.73
2022-12-31T21:21:43.605Z,8.13
2022-12-31T21:24:10.954Z,7.07
2022-12-31T21:26:37.848Z,7.82
2022-12-31T21:29:04.795Z,6.85
2022-12-31T21:31:31.789Z,5.28
2022-12-31T21:33:58.712Z,3.45
2022-12-31T21:36:25.570Z,6.82
2022-12-31T21:38:52.465Z,4.72
2022-12-31T21:41:37.628Z,8.07
2022-12-31T21:44:04.551Z,3.13
2022-12-31T21:46:31.744Z,6.55
2022-12-31T21:49:00.953Z,5.40
2022-12-31T21:51:29.633Z,6.60
2022-12-31T21:53:57.733Z,11.38
2022-12-31T21:56:25.100Z,8.48
2022-12-31T21:59:16.984Z,4.70
2022-12-31T22:02:10.327Z,3.83
2022-12-31T22:05:01.770Z,5.15
2022-12-31T22:07:24.337Z,7.88
2022-12-31T22:09:51.751Z,5.68
2022-12-31T22:12:18.619Z,5.30
2022-12-31T22:15:14.992Z,6.93
2022-12-31T22:17:32.469Z,6.13
2022-12-31T22:22:46.267Z,6.65
2022-12-31T22:25:13.236Z,6.53
2022-12-31T22:27:40.170Z,8.13
2022-12-31T22:30:08.299Z,7.55
2022-12-31T22:32:35.457Z,10.70
2022-12-31T22:35:02.384Z,5.78
2022-12-31T22:37:56.101Z,10.68
2022-12-31T22:40:16.513Z,7.78
2022-12-31T22:42:43.369Z,7.10
2022-12-31T22:45:10.973Z,9.40
2022-12-31T22:47:37.876Z,11.13
2022-12-31T22:50:05.480Z,8.65
2022-12-31T22:52:32.384Z,9.80
2022-12-31T22:54:59.296Z,8.93
2022-12-31T22:57:26.176Z,11.55
2022-12-31T22:59:53.085Z,14.80
2022-12-31T23:02:20.086Z,9.90
2022-12-31T23:04:46.957Z,14.88
2022-12-31T23:07:13.862Z,26.92
2022-12-31T23:09:59.532Z,23.27
2022-12-31T23:12:26.489Z,50.70
2022-12-31T23:15:12.536Z,65.53
2022-12-31T23:17:58.197Z,58.35
2022-12-31T23:20:45.604Z,66.38
2022-12-31T23:23:16.250Z,73.93
2022-12-31T23:25:50.369Z,68.57
2022-12-31T23:28:21.527Z,71.38
2022-12-31T23:30:49.174Z,67.60
2022-12-31T23:33:22.659Z,54.30
2022-12-31T23:35:49.682Z,55.97
2022-12-31T23:38:18.269Z,45.35
2022-12-31T23:40:45.463Z,52.55
2022-12-31T23:43:21.528Z,46.38
2022-12-31T23:45:51.027Z,40.45
2022-12-31T23:48:18.074Z,35.20
2022-12-31T23:50:50.847Z,28.33
2022-12-31T23:53:19.825Z,23.90
2022-12-31T23:55:46.723Z,18.08
2022-12-31T23:58:13.594Z,24.63
